createdAt,value
2019-02-17T00:01:41.108Z,24.80
2019-02-17T00:04:54.708Z,25.27
2019-02-17T00:07:29.959Z,26.17
2019-02-17T00:10:54.106Z,26.47
2019-02-17T00:13:53.543Z,25.33
2019-02-17T00:16:44.880Z,23.60
2019-02-17T00:23:21.666Z,30.10
2019-02-17T00:26:21.714Z,24.07
2019-02-17T00:29:19.390Z,29.43
2019-02-17T00:32:29.042Z,26.33
2019-02-17T00:35:39.752Z,25.37
2019-02-17T00:38:52.148Z,24.40
2019-02-17T00:41:55.067Z,24.93
2019-02-17T00:45:21.561Z,27.17
2019-02-17T00:48:20.724Z,26.37
2019-02-17T00:51:04.728Z,27.27
2019-02-17T00:54:19.105Z,27.87
2019-02-17T00:57:20.271Z,25.80
2019-02-17T01:00:43.128Z,26.97
2019-02-17T01:07:42.447Z,27.17
2019-02-17T01:10:26.378Z,26.63
2019-02-17T01:14:40.876Z,28.97
2019-02-17T01:33:00.114Z,24.67
2019-02-17T01:40:45.506Z,24.43
2019-02-17T01:48:27.197Z,28.90
2019-02-17T01:52:20.863Z,32.80
2019-02-17T02:26:29.088Z,28.83
2019-02-17T02:44:10.209Z,27.00
2019-02-17T02:47:36.612Z,31.10
2019-02-17T02:50:50.041Z,29.30
2019-02-17T02:54:31.026Z,23.83
2019-02-17T03:12:48.936Z,30.93
2019-02-17T03:16:20.860Z,27.20
2019-02-17T03:23:22.419Z,27.07
2019-02-17T03:33:41.929Z,28.53
2019-02-17T03:40:34.754Z,29.03
2019-02-17T03:43:59.615Z,30.63
2019-02-17T03:47:09.554Z,31.13
2019-02-17T04:00:46.004Z,27.97
2019-02-17T04:04:06.153Z,30.37
2019-02-17T04:10:45.313Z,29.13
2019-02-17T04:14:17.261Z,23.77
2019-02-17T04:17:21.773Z,30.53
2019-02-17T04:21:10.168Z,31.13
2019-02-17T04:43:21.901Z,29.80
2019-02-17T04:46:40.081Z,32.53
2019-02-17T05:44:41.536Z,26.87
2019-02-17T05:48:13.734Z,29.90
2019-02-17T05:55:30.271Z,30.37
2019-02-17T06:21:34.687Z,28.03
2019-02-17T06:25:50.140Z,30.97
2019-02-17T06:51:32.090Z,26.20
2019-02-17T06:54:28.936Z,23.40
2019-02-17T06:57:36.291Z,27.13
2019-02-17T07:01:01.633Z,32.53
2019-02-17T07:04:17.655Z,33.10
2019-02-17T07:07:23.730Z,32.73
2019-02-17T07:13:27.771Z,31.83
2019-02-17T07:16:45.912Z,26.03
2019-02-17T07:20:35.460Z,28.53
2019-02-17T07:27:04.206Z,32.67
2019-02-17T07:51:31.742Z,32.17
2019-02-17T07:54:24.454Z,31.37
2019-02-17T07:57:22.118Z,32.20
2019-02-17T07:59:55.904Z,27.13
2019-02-17T08:02:53.324Z,30.90
2019-02-17T08:05:43.016Z,27.90
2019-02-17T08:08:23.949Z,32.50
2019-02-17T08:11:18.742Z,31.67
2019-02-17T08:13:58.359Z,32.73
2019-02-17T08:16:30.378Z,26.27
2019-02-17T08:19:03.607Z,31.17
2019-02-17T08:21:34.992Z,27.90
2019-02-17T08:24:08.879Z,32.63
2019-02-17T08:26:47.841Z,27.67
2019-02-17T08:29:57.448Z,31.50
2019-02-17T08:33:05.527Z,27.00
2019-02-17T08:35:43.897Z,26.37
2019-02-17T08:38:24.433Z,26.83
2019-02-17T08:41:29.760Z,31.13
2019-02-17T08:44:10.188Z,29.03
2019-02-17T08:46:52.680Z,27.80
2019-02-17T08:49:30.801Z,29.57
2019-02-17T08:52:09.016Z,31.07
2019-02-17T08:55:17.530Z,30.03
2019-02-17T08:57:50.208Z,29.90
2019-02-17T09:00:30.833Z,28.97
2019-02-17T09:03:23.130Z,29.60
2019-02-17T09:06:20.826Z,30.67
2019-02-17T09:08:59.389Z,29.37
2019-02-17T09:11:35.103Z,31.53
2019-02-17T09:14:04.931Z,30.63
2019-02-17T09:16:49.605Z,28.67
2019-02-17T09:19:19.941Z,25.97
2019-02-17T09:21:48.392Z,30.60
2019-02-17T09:24:19.521Z,26.50
2019-02-17T09:26:47.385Z,27.10
2019-02-17T09:29:15.255Z,28.00
2019-02-17T09:31:43.309Z,27.10
2019-02-17T09:34:13.127Z,27.97
2019-02-17T09:36:44.923Z,24.23
2019-02-17T09:39:12.771Z,24.63
2019-02-17T09:41:41.865Z,26.23
2019-02-17T09:44:09.525Z,26.17
2019-02-17T09:46:37.174Z,23.63
2019-02-17T09:49:04.866Z,22.77
2019-02-17T09:51:32.763Z,23.53
2019-02-17T09:54:07.122Z,22.97
2019-02-17T09:56:34.935Z,23.37
2019-02-17T09:59:02.748Z,23.80
2019-02-17T10:01:30.486Z,24.97
2019-02-17T10:03:58.249Z,23.43
2019-02-17T10:06:27.751Z,23.63
2019-02-17T10:08:55.631Z,24.60
2019-02-17T10:11:23.326Z,23.97
2019-02-17T10:13:50.988Z,24.73
2019-02-17T10:16:18.845Z,24.13
2019-02-17T10:18:49.688Z,26.60
2019-02-17T10:21:20.519Z,24.73
2019-02-17T10:23:49.656Z,23.13
2019-02-17T10:26:23.419Z,23.93
2019-02-17T10:28:53.691Z,22.27
2019-02-17T10:31:23.306Z,22.17
2019-02-17T10:33:51.030Z,21.60
2019-02-17T10:36:18.875Z,25.00
2019-02-17T10:38:46.742Z,21.00
2019-02-17T10:41:14.469Z,23.60
2019-02-17T10:43:47.276Z,20.17
2019-02-17T10:46:17.436Z,23.33
2019-02-17T10:48:45.309Z,23.53
2019-02-17T10:51:20.939Z,22.60
2019-02-17T10:54:23.060Z,21.77
2019-02-17T10:56:50.777Z,19.77
2019-02-17T10:59:18.349Z,19.60
2019-02-17T11:01:47.855Z,21.83
2019-02-17T11:04:15.465Z,20.47
2019-02-17T11:06:43.206Z,21.97
2019-02-17T11:09:19.823Z,21.43
2019-02-17T11:11:47.600Z,20.33
2019-02-17T11:14:15.290Z,21.47
2019-02-17T11:16:42.907Z,20.33
2019-02-17T11:19:13.390Z,19.63
2019-02-17T11:21:41.024Z,21.27
2019-02-17T11:24:08.673Z,19.67
2019-02-17T11:26:36.309Z,20.47
2019-02-17T11:29:04.204Z,18.27
2019-02-17T11:31:34.098Z,18.53
2019-02-17T11:34:01.692Z,19.97
2019-02-17T11:36:33.726Z,17.67
2019-02-17T11:39:01.278Z,19.37
2019-02-17T11:41:31.854Z,20.00
2019-02-17T11:43:59.459Z,22.03
2019-02-17T11:46:28.034Z,20.47
2019-02-17T11:49:01.762Z,17.90
2019-02-17T11:51:29.436Z,17.33
2019-02-17T11:53:57.184Z,15.23
2019-02-17T11:56:24.747Z,16.07
2019-02-17T11:58:52.331Z,15.87
2019-02-17T12:01:20.229Z,16.20
2019-02-17T12:03:56.092Z,18.70
2019-02-17T12:06:27.904Z,15.83
2019-02-17T12:09:09.734Z,15.70
2019-02-17T12:11:37.506Z,15.43
2019-02-17T12:14:05.272Z,17.03
2019-02-17T12:16:36.954Z,15.43
2019-02-17T12:19:02.254Z,15.77
2019-02-17T12:21:41.996Z,14.50
2019-02-17T12:24:10.632Z,15.87
2019-02-17T12:26:49.435Z,16.10
2019-02-17T12:29:28.759Z,16.83
2019-02-17T12:31:57.839Z,15.17
2019-02-17T12:34:25.724Z,14.00
2019-02-17T12:36:53.333Z,14.40
2019-02-17T12:39:21.394Z,14.00
2019-02-17T12:41:49.056Z,13.40
2019-02-17T12:44:16.870Z,17.83
2019-02-17T12:46:44.541Z,14.33
2019-02-17T12:49:12.170Z,16.47
2019-02-17T12:51:39.837Z,13.83
2019-02-17T12:54:07.648Z,12.07
2019-02-17T12:56:35.289Z,13.47
2019-02-17T12:59:04.724Z,11.10
2019-02-17T13:01:32.332Z,10.87
2019-02-17T13:04:00.115Z,12.40
2019-02-17T13:06:29.055Z,10.67
2019-02-17T13:08:56.741Z,11.10
2019-02-17T13:11:24.456Z,10.53
2019-02-17T13:13:52.477Z,11.87
2019-02-17T13:16:20.237Z,12.47
2019-02-17T13:18:48.095Z,12.30
2019-02-17T13:21:15.765Z,10.37
2019-02-17T13:23:43.835Z,10.50
2019-02-17T13:26:11.468Z,12.03
2019-02-17T13:28:39.058Z,10.30
2019-02-17T13:31:06.681Z,12.50
2019-02-17T13:33:39.117Z,11.73
2019-02-17T13:36:04.348Z,9.50
2019-02-17T13:38:31.957Z,12.70
2019-02-17T13:40:59.535Z,11.70
2019-02-17T13:43:27.221Z,13.90
2019-02-17T13:45:54.819Z,10.67
2019-02-17T13:48:22.773Z,12.13
2019-02-17T13:50:50.629Z,13.47
2019-02-17T13:53:18.273Z,10.53
2019-02-17T13:55:46.545Z,10.03
2019-02-17T13:58:14.159Z,11.83
2019-02-17T14:00:41.813Z,11.63
2019-02-17T14:03:09.645Z,9.13
2019-02-17T14:05:37.290Z,10.20
2019-02-17T14:08:06.837Z,7.90
2019-02-17T14:10:37.243Z,10.93
2019-02-17T14:13:04.842Z,9.13
2019-02-17T14:15:32.495Z,9.57
2019-02-17T14:18:00.118Z,8.53
2019-02-17T14:20:27.795Z,9.43
2019-02-17T14:22:55.413Z,7.97
2019-02-17T14:25:23.957Z,8.47
2019-02-17T14:27:51.551Z,8.33
2019-02-17T14:30:25.639Z,8.23
2019-02-17T14:33:12.736Z,7.03
2019-02-17T14:35:40.294Z,8.17
2019-02-17T14:38:07.901Z,7.17
2019-02-17T14:40:35.951Z,7.87
2019-02-17T14:43:03.529Z,7.17
2019-02-17T14:45:31.271Z,7.20
2019-02-17T14:47:58.880Z,6.90
2019-02-17T14:50:26.721Z,7.67
2019-02-17T14:52:54.396Z,6.37
2019-02-17T14:55:22.031Z,6.93
2019-02-17T14:57:52.929Z,6.47
2019-02-17T15:00:20.587Z,6.57
2019-02-17T15:02:48.244Z,6.13
2019-02-17T15:05:17.909Z,6.70
2019-02-17T15:07:45.513Z,6.80
2019-02-17T15:10:13.470Z,6.97
2019-02-17T15:12:41.150Z,5.87
2019-02-17T15:15:09.367Z,7.13
2019-02-17T15:17:53.838Z,6.27
2019-02-17T15:20:21.569Z,5.00
2019-02-17T15:22:49.256Z,4.73
2019-02-17T15:25:18.448Z,5.37
2019-02-17T15:27:50.649Z,5.87
2019-02-17T15:30:18.415Z,5.27
2019-02-17T15:32:51.236Z,7.57
2019-02-17T15:35:18.860Z,5.90
2019-02-17T15:37:46.498Z,6.13
2019-02-17T15:40:14.580Z,6.07
2019-02-17T15:42:43.267Z,5.97
2019-02-17T15:45:11.365Z,7.50
2019-02-17T15:47:41.618Z,5.90
2019-02-17T15:50:09.429Z,6.10
2019-02-17T15:52:42.624Z,7.60
2019-02-17T15:55:15.641Z,6.80
2019-02-17T15:57:43.284Z,7.97
2019-02-17T16:00:16.468Z,7.87
2019-02-17T16:02:44.034Z,6.73
2019-02-17T16:05:11.744Z,6.90
2019-02-17T16:07:42.521Z,7.40
2019-02-17T16:10:10.148Z,12.43
2019-02-17T16:12:37.982Z,10.33
2019-02-17T16:15:08.698Z,10.13
2019-02-17T16:17:36.400Z,8.17
2019-02-17T16:20:06.012Z,8.47
2019-02-17T16:22:33.606Z,11.43
2019-02-17T16:25:01.277Z,10.17
2019-02-17T16:27:34.344Z,10.30
2019-02-17T16:30:01.980Z,10.47
2019-02-17T16:33:04.962Z,7.93
2019-02-17T16:35:23.686Z,8.93
2019-02-17T16:37:54.343Z,12.67
2019-02-17T16:40:22.088Z,9.00
2019-02-17T16:42:49.796Z,9.13
2019-02-17T16:45:17.671Z,8.47
2019-02-17T16:47:45.398Z,9.20
2019-02-17T16:50:15.427Z,7.30
2019-02-17T16:52:43.273Z,8.67
2019-02-17T16:55:13.150Z,7.57
2019-02-17T16:57:43.164Z,9.60
2019-02-17T17:00:13.318Z,8.93
2019-02-17T17:02:40.913Z,10.20
2019-02-17T17:05:09.055Z,9.90
2019-02-17T17:10:48.022Z,8.40
2019-02-17T17:13:18.624Z,7.37
2019-02-17T17:15:46.526Z,7.90
2019-02-17T17:18:14.286Z,7.13
2019-02-17T17:20:41.936Z,8.10
2019-02-17T17:23:09.554Z,9.10
2019-02-17T17:25:37.214Z,8.80
2019-02-17T17:28:04.776Z,12.80
2019-02-17T17:30:32.444Z,11.13
2019-02-17T17:33:00.068Z,10.90
2019-02-17T17:35:27.656Z,9.30
2019-02-17T17:37:55.265Z,9.37
2019-02-17T17:40:22.834Z,8.97
2019-02-17T17:42:53.546Z,12.23
2019-02-17T17:45:21.243Z,11.00
2019-02-17T17:47:48.904Z,14.37
2019-02-17T17:50:16.798Z,10.60
2019-02-17T17:52:44.560Z,10.43
2019-02-17T17:55:13.788Z,12.20
2019-02-17T17:57:43.066Z,9.40
2019-02-17T18:00:13.253Z,9.70
2019-02-17T18:02:40.967Z,11.10
2019-02-17T18:05:09.645Z,11.33
2019-02-17T18:07:48.062Z,11.03
2019-02-17T18:10:22.310Z,11.50
2019-02-17T18:12:49.968Z,16.77
2019-02-17T18:15:17.697Z,30.87
2019-02-17T18:17:53.764Z,25.27
2019-02-17T18:20:17.685Z,22.07
2019-02-17T18:22:45.349Z,14.83
2019-02-17T18:25:13.504Z,14.40
2019-02-17T18:27:41.268Z,11.77
2019-02-17T18:30:12.627Z,11.60
2019-02-17T18:32:40.575Z,10.50
2019-02-17T18:35:08.411Z,11.03
2019-02-17T18:37:39.729Z,9.57
2019-02-17T18:40:10.039Z,11.60
2019-02-17T18:42:37.736Z,10.47
2019-02-17T18:45:06.904Z,12.00
2019-02-17T18:47:35.971Z,11.10
2019-02-17T18:50:04.883Z,12.77
2019-02-17T18:52:32.656Z,11.20
2019-02-17T18:55:00.327Z,10.93
2019-02-17T18:57:28.002Z,11.90
2019-02-17T18:59:55.651Z,7.20
2019-02-17T19:02:23.370Z,7.83
2019-02-17T19:04:51.053Z,7.70
2019-02-17T19:07:22.344Z,9.63
2019-02-17T19:10:23.372Z,7.00
2019-02-17T19:12:56.913Z,7.37
2019-02-17T19:15:24.548Z,7.17
2019-02-17T19:17:53.601Z,9.33
2019-02-17T19:20:21.300Z,8.53
2019-02-17T19:22:48.890Z,12.80
2019-02-17T19:25:16.565Z,9.17
2019-02-17T19:27:49.439Z,9.17
2019-02-17T19:30:17.127Z,10.13
2019-02-17T19:32:44.909Z,10.40
2019-02-17T19:35:13.843Z,14.30
2019-02-17T19:37:41.533Z,13.27
2019-02-17T19:40:09.944Z,18.10
2019-02-17T19:42:37.676Z,17.27
2019-02-17T19:45:11.111Z,11.30
2019-02-17T19:47:42.620Z,10.57
2019-02-17T19:50:11.049Z,10.93
2019-02-17T19:52:51.269Z,10.43
2019-02-17T19:55:21.737Z,10.10
2019-02-17T19:57:49.385Z,10.70
2019-02-17T20:00:18.895Z,10.00
2019-02-17T20:03:11.024Z,10.67
2019-02-17T20:05:51.407Z,14.80
2019-02-17T20:08:11.052Z,17.00
2019-02-17T20:10:38.776Z,15.13
2019-02-17T20:13:08.418Z,13.90
2019-02-17T20:15:37.549Z,11.37
2019-02-17T20:18:05.343Z,12.30
2019-02-17T20:20:34.243Z,11.77
2019-02-17T20:23:02.841Z,12.07
2019-02-17T20:25:30.449Z,10.17
2019-02-17T20:28:00.382Z,9.43
2019-02-17T20:30:28.181Z,10.43
2019-02-17T20:32:56.080Z,9.10
2019-02-17T20:35:32.722Z,9.83
2019-02-17T20:38:00.375Z,10.93
2019-02-17T20:40:28.028Z,10.97
2019-02-17T20:42:55.644Z,8.20
2019-02-17T20:45:23.694Z,8.57
2019-02-17T20:47:51.304Z,10.97
2019-02-17T20:50:20.019Z,9.90
2019-02-17T20:52:51.059Z,9.47
2019-02-17T20:55:19.997Z,10.43
2019-02-17T20:57:47.674Z,9.53
2019-02-17T21:00:17.552Z,8.57
2019-02-17T21:02:48.087Z,9.53
2019-02-17T21:05:15.770Z,10.57
2019-02-17T21:07:43.428Z,11.23
2019-02-17T21:10:11.208Z,11.30
2019-02-17T21:12:40.964Z,13.03
2019-02-17T21:15:11.354Z,11.77
2019-02-17T21:17:40.208Z,12.87
2019-02-17T21:20:08.156Z,13.80
2019-02-17T21:22:36.368Z,9.00
2019-02-17T21:25:04.532Z,12.93
2019-02-17T21:27:32.071Z,11.73
2019-02-17T21:29:59.773Z,10.63
2019-02-17T21:32:29.224Z,10.30
2019-02-17T21:34:57.984Z,12.77
2019-02-17T21:37:25.649Z,10.60
2019-02-17T21:39:53.370Z,13.20
2019-02-17T21:42:22.736Z,9.47
2019-02-17T21:44:50.475Z,12.20
2019-02-17T21:47:20.868Z,11.13
2019-02-17T21:49:48.637Z,10.97
2019-02-17T21:52:17.910Z,11.77
2019-02-17T21:54:45.512Z,11.77
2019-02-17T21:57:14.991Z,12.67
2019-02-17T21:59:42.543Z,12.80
2019-02-17T22:02:10.134Z,12.77
2019-02-17T22:04:37.789Z,12.17
2019-02-17T22:07:08.501Z,12.63
2019-02-17T22:09:36.628Z,14.33
2019-02-17T22:12:04.208Z,14.43
2019-02-17T22:14:31.799Z,15.27
2019-02-17T22:16:59.348Z,13.33
2019-02-17T22:19:26.962Z,15.77
2019-02-17T22:21:54.534Z,13.50
2019-02-17T22:24:22.125Z,14.10
2019-02-17T22:26:49.713Z,13.27
2019-02-17T22:29:17.274Z,12.47
2019-02-17T22:31:44.874Z,15.60
2019-02-17T22:34:12.474Z,12.73
2019-02-17T22:36:43.758Z,13.10
2019-02-17T22:39:10.022Z,12.33
2019-02-17T22:41:37.883Z,13.67
2019-02-17T22:44:05.455Z,10.93
2019-02-17T22:46:33.023Z,11.17
2019-02-17T22:49:00.592Z,12.77
2019-02-17T22:51:28.603Z,10.23
2019-02-17T22:53:56.223Z,10.63
2019-02-17T22:56:23.902Z,10.83
2019-02-17T22:58:51.515Z,12.53
2019-02-17T23:01:24.155Z,12.10
2019-02-17T23:03:52.113Z,12.27
2019-02-17T23:06:19.663Z,10.93
2019-02-17T23:08:47.259Z,13.53
2019-02-17T23:11:15.896Z,13.00
2019-02-17T23:13:43.503Z,11.47
2019-02-17T23:16:11.169Z,10.50
2019-02-17T23:18:38.788Z,12.20
2019-02-17T23:21:06.402Z,12.87
2019-02-17T23:23:35.644Z,12.17
2019-02-17T23:26:03.411Z,10.63
2019-02-17T23:28:33.292Z,11.13
2019-02-17T23:31:01.008Z,12.63
2019-02-17T23:33:28.637Z,13.13
2019-02-17T23:35:56.225Z,11.77
2019-02-17T23:38:23.864Z,11.53
2019-02-17T23:40:51.465Z,11.17
2019-02-17T23:43:19.081Z,11.47
2019-02-17T23:45:46.716Z,11.33
2019-02-17T23:48:14.291Z,12.73
2019-02-17T23:50:41.862Z,15.47
2019-02-17T23:53:09.474Z,11.10
2019-02-17T23:55:37.116Z,11.87
2019-02-17T23:58:04.667Z,11.47
